Tiempo atmosférico en la estación meteorológica de Punta Galea, Bizkaia (90 m.)



Fecha
DESCASC
Temp. máxima en grados centígrados (hora)
DESCASC
Temp. mínima en grados centígrados (hora)
DESCASC
Temp. media en grados centígrados
DESCASC
Racha de viento máxima en m/sg (hora)
DESCASC
Velocidad máxima media en intervalos de 10 minutos(hora)
DESCASC
Precipitaciones diarias en mm
DESCASC
Precipitaciones de 00:00 a 06:00 en mm
DESCASC
Precipitaciones de 06:00 a 12:00 en mm
DESCASC
Precipitaciones de 12:00 a 18:00 en mm
DESCASC
Precipitaciones de 18:00 a 24:00 en mm
DESCASC
16-02-2020 20.3 (12:40) 16.3 (08:00) 18.3 21.11 (12:50) 6.39 (12:50) 0 0 0 0 0
15-02-2020 20 (14:50) 8.2 (03:30) 14.1 10.56 (21:10) 5 (21:10) 0 0 0 0 0
14-02-2020 16.2 (14:00) 9 (07:30) 12.6 4.44 (10:30) 2.78 (17:20) 0 0 0 0 0
13-02-2020 17.3 (12:30) 11.1 (00:00) 14.2 10 (16:50) 5.28 (17:00) 0 0 0 0 0
12-02-2020 13.4 (23:59) 9 (00:00) 11.2 6.94 (23:59) 3.61 (22:40) 0.4 0.3 0.1 0 0
11-02-2020 13.1 (13:30) 9.8 (00:00) 11.5 10 (14:40) 5.28 (14:40) 2.1 0 1.2 0.5 0.4
10-02-2020 17.4 (00:40) 11.7 (00:00) 14.5 9.72 (00:40) 4.72 (00:50) 0 0 0 0 0
09-02-2020 18.1 (16:20) 8.3 (00:00) 13.2 11.67 (13:40) 5 (14:10) 0 0 0 0 0
08-02-2020 12.5 (09:20) 8.5 (00:00) 10.5 11.11 (11:40) 6.11 (11:40) 3.3 0 3.3 0 0
07-02-2020 17.5 (16:20) 9.1 (00:00) 13.3 8.06 (04:50) 3.61 (03:00) 0 0 0 0 0
06-02-2020 18.1 (14:30) 4 (00:00) 11.1 9.17 (07:50) 4.44 (10:00) 0 0 0 0 0
05-02-2020 11.2 (13:50) 4.7 (00:00) 7.9 8.33 (14:40) 4.72 (15:40) 0.3 0.3 0 0 0
04-02-2020 15.5 (01:10) 9 (00:00) 12.3 8.61 (08:20) 5.28 (01:50) 3.7 0 3 0.7 0
03-02-2020 25 (15:50) 13.1 (23:30) 19.1 7.78 (12:00) 4.17 (12:20) 0 0 0 0 0
02-02-2020 22.5 (14:00) 14 (00:00) 18.3 8.61 (14:10) 4.17 (06:40) 0 0 0 0 0
01-02-2020 18.6 (01:40) 12.5 (00:00) 15.6 12.5 (00:30) 4.72 (01:20) 0.8 0.8 0 0 0
31-01-2020 21.4 (14:20) 10.9 (00:00) 16.1 10.28 (23:30) 3.89 (21:20) 0 0 0 0 0
30-01-2020 18.1 (13:20) 13 (00:00) 15.6 9.17 (08:20) 4.17 (07:50) 2.4 2.4 0 0 0
29-01-2020 17.9 (13:50) 7.3 (00:00) 12.6 7.5 (17:20) 3.61 (23:50) 2.1 0 0 0.4 1.7
28-01-2020 14 (14:10) 7.3 (00:00) 10.7 12.5 (02:40) 7.22 (02:40) 1.2 1.2 0 0 0
27-01-2020 16.5 (20:50) 9.4 (00:00) 12.9 16.94 (09:50) 6.67 (09:40) 0.3 0 0.2 0 0.1
26-01-2020 14.6 (14:40) 5.9 (00:00) 10.3 7.5 (20:20) 3.33 (11:30) 0 0 0 0 0
25-01-2020 14.2 (13:40) 8.6 (00:00) 11.4 6.94 (05:50) 4.17 (07:20) 0 0 0 0 0
24-01-2020 12.8 (15:20) 9.2 (00:00) 11 11.11 (06:00) 5.83 (07:20) 0 0 0 0 0
23-01-2020 10.8 (14:30) 5.3 (00:00) 8.1 10 (21:30) 5 (21:30) 0 0 0 0 0
22-01-2020 9.3 (02:30) 6.8 (00:00) 8.1 10.56 (04:30) 3.33 (04:00) 0.7 0 0 0.7 0

Gráficas

Temp. máximas Temp. mínimas Temp. medias Precipitaciones Rachas de viento máximas Velocidades máximas media en intervalos de 10 minutos

Datos horarios

Fecha y hora oficial Temperatura (ºC) Velocidad del viento (km/h) Dirección del viento Racha (km/h) Dirección de racha Precipitación (mm) Presión (hPa) Tendencia (hPa) Humedad (%)
2020-02-20 23:00:00 8.6 5 Sudeste 9 Sur 0 1021.5 1.9 95
2020-02-20 22:00:00 8.9 6 Sur 10 Sur 0 1020.6 2 95
2020-02-20 21:00:00 9.6 4 Sudeste 8 Sudeste 0 1020.2 2.6 92
2020-02-20 20:00:00 10.9 4 Noroeste 7 Noroeste 0 1019.6 2.3 91
2020-02-20 19:00:00 11.4 0 Calma 6 Noroeste 0 1018.6 1.6 90
2020-02-20 18:00:00 11.6 0 Calma 13 Noroeste 0 1017.6 0.9 90
2020-02-20 17:00:00 11.9 5 Noroeste 17 Oeste 0 1017.3 1.2 91
2020-02-20 16:00:00 12.4 8 Noroeste 23 Noroeste 0 1017 1.4 90
2020-02-20 15:00:00 12.1 11 Noroeste 28 Noroeste 0 1016.7 1.9 92
2020-02-20 14:00:00 12.2 11 Noroeste 21 Noroeste 0 1016.1 1.4 92
2020-02-20 13:00:00 12.2 7 Noroeste 16 Noroeste 0 1015.6 1 87
2020-02-20 12:00:00 12.2 5 Norte 8 Nordeste 0 1014.8 0.5 83
2020-02-20 11:00:00 11.4 4 Sudeste 11 Sudeste 0 1014.7 0.6 86
2020-02-20 10:00:00 9.4 8 Sudeste 13 Sudeste 0 1014.6 1.2 91
2020-02-20 09:00:00 8.1 7 Sur 12 Noroeste 0 1014.3 1.6 93
2020-02-20 08:00:00 8.8 8 Oeste 23 Oeste 0 1014.1 2 95
2020-02-20 07:00:00 8.7 13 Noroeste 20 Noroeste 0 1013.4 1.1 95
2020-02-20 06:00:00 8.1 5 Noroeste 10 Sur 0 1012.7 -0.6 90
2020-02-20 05:00:00 7.1 7 Sur 16 Sur 0 1012.1 -1.9 74
2020-02-20 04:00:00 7.4 9 Sur 19 Sur 0 1012.3 -2.8 78
2020-02-20 03:00:00 7.4 9 Sur 19 Sur 0 1013.3 -2.6 85
2020-02-20 02:00:00 6.4 9 Sur 16 Sur 0 1014 -2.7 94
2020-02-20 01:00:00 6.4 9 Sur 13 Sur 0 1015.1 -2.3 95
2020-02-20 00:00:00 6.6 7 Sur 12 Sur 0 1015.9 -2 95
2020-02-19 23:00:00 7.1 6 Sur 10 Sur 0 1016.7 -1.7 94
2020-02-19 22:00:00 7.8 5 Sudeste 6 Sudeste 0 1017.4 -1.2 94
2020-02-19 21:00:00 8.3 5 Sudeste 6 Sudeste 0 1017.9 -1.2 92
2020-02-19 20:00:00 9.4 3 Sudeste 5 Sudeste 0 1018.4 -1.1 89
2020-02-19 19:00:00 10.7 0 Calma 6 Nordeste 0 1018.6 -1.6 85
2020-02-19 18:00:00 12.7 4 Nordeste 17 Nordeste 0 1019.1 -2.1 82
2020-02-19 17:00:00 12.4 11 Nordeste 18 Nordeste 0 1019.5 -2.8 81
2020-02-19 16:00:00 12.3 11 Nordeste 18 Nordeste 0 1020.2 -3.2 79
2020-02-19 15:00:00 13.5 8 Nordeste 13 Nordeste 0 1021.2 -3.2 75
2020-02-19 14:00:00 13.1 6 Nordeste 12 Norte 0 1022.3 -2.5 73
2020-02-19 13:00:00 12.1 3 Nordeste 9 Sur 0 1023.4 -1.6 72
2020-02-19 12:00:00 11.8 4 Sudeste 12 Sur 0 1024.4 -0.2 78
2020-02-19 11:00:00 9.8 8 Sudeste 17 Sudeste 0 1024.8 0.3 85
2020-02-19 10:00:00 7.4 10 Sur 17 Sur 0 1025 0.3 90
2020-02-19 09:00:00 5.2 10 Sur 17 Sur 0 1024.6 0.2 95
2020-02-19 08:00:00 4.8 10 Sur 18 Sur 0 1024.5 0.8 95
2020-02-19 07:00:00 4.4 12 Sur 17 Sudeste 0 1024.7 0.6 95
2020-02-19 06:00:00 4.7 10 Sur 15 Sur 0 1024.4 0.3 95
2020-02-19 05:00:00 5 10 Sur 17 Sur 0 1023.7 -1 95
2020-02-19 04:00:00 5.5 10 Sudeste 14 Sudeste 0 1024.1 -0.9 94
2020-02-19 03:00:00 5.7 9 Sur 14 Sur 0 1024.1 -1.5 94
2020-02-19 02:00:00 6 9 Sur 13 Sudeste 0 1024.7 -0.9 94
2020-02-19 01:00:00 6.4 8 Sur 14 Sur 0 1025 -0.5 94
2020-02-19 00:00:00 6.9 6 Sur 9 Sur 0 1025.6 0.2 92
2020-02-18 23:00:00 7.6 5 Sudoeste 9 Sudoeste 0 1025.6 0.1 90
2020-02-18 22:00:00 8.1 4 Sudoeste 11 Oeste 0 1025.5 0.2 89
2020-02-18 21:00:00 8.9 5 Sudoeste 14 Noroeste 0 1025.4 0.9 87
2020-02-18 20:00:00 10.1 8 Oeste 22 Noroeste 0 1025.5 1.4 85
2020-02-18 19:00:00 10.2 12 Noroeste 23 Noroeste 0 1025.3 1 82
2020-02-18 18:00:00 11 11 Noroeste 21 Noroeste 0 1024.5 0 80
2020-02-18 17:00:00 11.1 10 Noroeste 22 Noroeste 0 1024.1 -0.8 82
2020-02-18 16:00:00 10.7 11 Noroeste 22 Noroeste 0 1024.3 -1.2 85
2020-02-18 15:00:00 11.3 11 Nordeste 21 Nordeste 0 1024.5 -1.4 82
2020-02-18 14:00:00 11.2 8 Noroeste 17 Noroeste 0 1024.9 -0.8 77
2020-02-18 13:00:00 10.8 10 Noroeste 17 Oeste 0 1025.5 0 79
2020-02-18 12:00:00 10.5 13 Noroeste 22 Oeste 0 1025.9 0.8 82
2020-02-18 11:00:00 10 4 Oeste 9 Oeste 0 1025.7 1.1 90
2020-02-18 10:00:00 8 6 Sudeste 11 Sudeste 0 1025.5 1.2 96
2020-02-18 09:00:00 7.2 6 Sur 10 Sudeste 0 1025.1 0.7 95
2020-02-18 08:00:00 7 7 Sur 10 Sudeste 0.1 1024.6 0.1 95
2020-02-18 07:00:00 7.6 6 Sudoeste 15 Sudoeste 0 1024.3 -0.2 95
2020-02-18 06:00:00 7.4 5 Oeste 16 Sudoeste 0 1024.4 -0.4 95
2020-02-18 05:00:00 6.7 7 Sur 12 Sudeste 0 1024.5 -0.4 95
2020-02-18 04:00:00 6.7 8 Sur 11 Sur 0 1024.5 -0.5 95
2020-02-18 03:00:00 7 8 Sur 10 Sur 0 1024.8 -0.1 94
2020-02-18 02:00:00 8.9 5 Oeste 12 Oeste 0.1 1024.9 -0.1 91
2020-02-18 01:00:00 8.7 3 Oeste 13 Sudoeste 0 1025 0.5 91
2020-02-18 00:00:00 9.4 10 Oeste 18 Oeste 0 1024.9 0.7 85
2020-02-17 23:00:00 9.6 8 Oeste 17 Oeste 0 1025 1.4 89
2020-02-17 22:00:00 9.5 9 Oeste 29 Oeste 0 1024.5 1.8 89
2020-02-17 21:00:00 10.2 8 Oeste 21 Oeste 0 1024.2 2.4 90
2020-02-17 20:00:00 10.1 12 Oeste 24 Oeste 0 1023.6 2.3 91
2020-02-17 19:00:00 9.9 13 Noroeste 37 Noroeste 0 1022.7 2.2 91
2020-02-17 18:00:00 11.2 18 Noroeste 38 Noroeste 0 1021.8 1.8 84
2020-02-17 17:00:00 11.3 21 Noroeste 42 Noroeste 0 1021.3 1.4 80
2020-02-17 16:00:00 11.3 18 Noroeste 41 Noroeste 0 1020.5 0.9 83
2020-02-17 15:00:00 11.4 17 Noroeste 38 Noroeste 0 1020 0.7 83
2020-02-17 14:00:00 11.9 15 Noroeste 30 Noroeste 0 1019.9 1 83
2020-02-17 13:00:00 11.4 9 Noroeste 21 Oeste 0 1019.6 1.7 84
2020-02-17 12:00:00 10.2 9 Oeste 22 Oeste 0.3 1019.3 2.2 94
2020-02-17 11:00:00 10.1 14 Noroeste 28 Noroeste 0 1018.9 3 95
2020-02-17 10:00:00 9.8 8 Noroeste 28 Noroeste 0 1017.9 2.9 97
2020-02-17 09:00:00 9.5 18 Noroeste 32 Noroeste 0.7 1017.1 3.8 98
2020-02-17 08:00:00 9.6 13 Noroeste 26 Noroeste 1.6 1015.9 3.9 98
2020-02-17 07:00:00 9.5 11 Noroeste 27 Noroeste 0.9 1015 3.3 98
2020-02-17 06:00:00 10.3 13 Noroeste 28 Norte 0.1 1013.3 1.1 98
2020-02-17 05:00:00 11.5 9 Noroeste 17 Noroeste 0 1012 -0.1 95
2020-02-17 04:00:00 11.6 6 Noroeste 12 Oeste 0 1011.7 1.6 95
2020-02-17 03:00:00 11.9 7 Noroeste 15 Noroeste 0 1012.2 2.4 95
2020-02-17 02:00:00 12.8 10 Noroeste 36 Oeste 0 1012.1 2.6 95
2020-02-17 01:00:00 18 16 Sudoeste 40 Sudoeste 0 1010.1 1 58
2020-02-17 00:00:00 17.8 13 Sur 36 Sur 0 1009.8 0.7 58
2020-02-16 23:00:00 18.2 18 Sudoeste 44 Sudoeste 0 1009.5 0.7 56
2020-02-16 22:00:00 18.2 18 Sudoeste 42 Sur 0 1009.1 0.3 57
2020-02-16 21:00:00 18.1 16 Sur 38 Sur 0 1009.1 0.7 57
2020-02-16 20:00:00 18.1 15 Sur 40 Sur 0 1008.8 1 57
2020-02-16 19:00:00 18.2 15 Sur 45 Sur 0 1008.8 0.8 55
2020-02-16 18:00:00 18.7 18 Sur 46 Sudoeste 0 1008.4 1.2 53
2020-02-16 17:00:00 18.5 15 Sur 40 Sur 0 1007.8 1 54
2020-02-16 16:00:00 18.8 17 Sur 49 Oeste 0 1008 0.2 51
2020-02-16 15:00:00 19.8 20 Sur 53 Sudoeste 0 1007.2 -1 48
2020-02-16 14:00:00 19.9 22 Sudoeste 57 Sur 0 1006.8 -1.3 45
2020-02-16 13:00:00 19.1 22 Sudoeste 76 Sudoeste 0 1007.8 -0.1 46
2020-02-16 12:00:00 18.8 19 Sur 62 Sudoeste 0 1008.2 0.1 49
2020-02-16 11:00:00 16.9 17 Sur 40 Sur 0 1008.1 0.8 53
2020-02-16 10:00:00 17 14 Sur 39 Sur 0 1007.9 0.5 51
2020-02-16 09:00:00 16.7 18 Sur 46 Sudeste 0 1008.1 0 51
2020-02-16 08:00:00 16.5 15 Sur 35 Sudeste 0 1007.3 -0.9 53
2020-02-16 07:00:00 16.9 16 Sur 42 Sur 0 1007.4 -1 51
2020-02-16 06:00:00 16.8 12 Sur 42 Sur 0 1008.1 -0.2 52
2020-02-16 05:00:00 16.8 13 Sur 35 Sur 0 1008.2 -1 54
2020-02-16 04:00:00 17 17 Sur 39 Sur 0 1008.4 -0.9 53
2020-02-16 03:00:00 17.1 19 Sur 65 Sur 0 1008.3 -1.7 55
2020-02-16 02:00:00 17.2 15 Sur 49 Sur 0 1009.2 -0.7 56
2020-02-16 01:00:00 17.4 19 Sur 40 Sur 0 1009.3 -1.7 54
2020-02-16 00:00:00 16.7 15 Sur 36 Sudoeste 0 1010 -0.7 57
2020-02-15 23:00:00 16.1 12 Sur 35 Sur 0 1009.9 -1.2 58
2020-02-15 22:00:00 16.4 13 Sur 38 Sur 0 1011 0.1 55
2020-02-15 21:00:00 16.8 15 Sur 36 Sur 0 1010.7 0.5 52
2020-02-15 20:00:00 16.6 12 Sur 26 Sur 0 1011.1 1.4 51
2020-02-15 19:00:00 17.3 10 Sur 21 Sur 0 1010.9 1.3 49
2020-02-15 18:00:00 17.6 9 Sur 22 Sudeste 0 1010.2 -0.2 50
2020-02-15 17:00:00 18.3 8 Sur 31 Sur 0 1009.7 -0.8 49
2020-02-15 16:00:00 18.7 13 Sur 32 Sur 0 1009.6 -1.5 45
2020-02-15 15:00:00 19.8 12 Sur 27 Sur 0 1010.4 -2.4 46
2020-02-15 14:00:00 19.1 10 Sur 22 Sudoeste 0 1010.5 -2.7 51
2020-02-15 13:00:00 19 11 Sur 23 Sur 0 1011.1 -2 54
2020-02-15 12:00:00 17.8 10 Sur 21 Sur 0 1012.8 0.2 59
2020-02-15 11:00:00 15.9 7 Sur 15 Sur 0 1013.2 0.7 66
2020-02-15 10:00:00 13.7 7 Sur 14 Sudeste 0 1013.1 1 77
2020-02-15 09:00:00 11 6 Sur 15 Sudeste 0 1012.6 0.9 85
2020-02-15 08:00:00 9.8 8 Sur 14 Sur 0 1012.5 0.4 87
2020-02-15 07:00:00 9.8 9 Sur 18 Sur 0 1012.1 -0.5 88
2020-02-15 06:00:00 8.8 8 Sur 17 Sudeste 0 1011.7 -1.7 92
2020-02-15 05:00:00 8.8 9 Sur 16 Sur 0 1012.1 -1.3 94
2020-02-15 04:00:00 8.4 7 Sur 17 Sudeste 0 1012.6 -1.4 95
2020-02-15 03:00:00 8.4 7 Sur 16 Sur 0 1013.4 -1.5 94
2020-02-15 02:00:00 8.7 9 Sur 15 Sur 0 1013.4 -2.1 94
2020-02-15 01:00:00 9 7 Sur 14 Sur 0 1014 -1.7 93
2020-02-15 00:00:00 9.2 7 Sur 13 Sur 0 1014.9 -1.1 93
2020-02-14 23:00:00 9.5 9 Sur 13 Sur 0 1015.5 -0.2 93
2020-02-14 22:00:00 10 7 Sur 9 Sur 0 1015.7 0.5 93
2020-02-14 21:00:00 11.1 5 Sudoeste 8 Sudoeste 0 1016 1 92
2020-02-14 20:00:00 11.7 3 Sur 5 Sudeste 0 1015.7 0.3 85
2020-02-14 19:00:00 12.7 3 Este 10 Este 0 1015.2 -0.5 81
2020-02-14 18:00:00 14.4 5 Este 14 Este 0 1015 -0.9 79
2020-02-14 17:00:00 15.1 9 Nordeste 16 Este 0 1015.4 -0.9 76
2020-02-14 16:00:00 15.2 7 Nordeste 14 Nordeste 0 1015.7 -1.3 82
2020-02-14 15:00:00 15.9 5 Nordeste 11 Nordeste 0 1015.9 -1.2 81
2020-02-14 14:00:00 16.2 5 Nordeste 14 Nordeste 0 1016.3 -0.8 83
2020-02-14 13:00:00 14.7 6 Nordeste 10 Sur 0 1017 0 89
2020-02-14 12:00:00 14.8 6 Sur 13 Sur 0 1017.1 0.2 87
2020-02-14 11:00:00 12.9 8 Sudeste 16 Sudeste 0 1017.1 1 92
2020-02-14 10:00:00 10.9 7 Sur 13 Sudeste 0 1017 1 96
2020-02-14 09:00:00 9.8 6 Sur 11 Sudeste 0 1016.9 1.1 96
2020-02-14 08:00:00 9.1 8 Sur 12 Sur 0 1016.1 0.6 95
2020-02-14 07:00:00 9.4 6 Sur 10 Sudeste 0 1016 0.5 95
2020-02-14 06:00:00 9.7 6 Sur 10 Sudeste 0 1015.8 0 95
2020-02-14 05:00:00 10.6 6 Sudeste 9 Sudeste 0 1015.5 -0.9 94
2020-02-14 04:00:00 11.5 4 Sur 7 Sur 0 1015.5 -1 91
2020-02-14 03:00:00 12.1 0 Calma 7 Oeste 0 1015.8 -0.6 90
2020-02-14 02:00:00 12.3 2 Oeste 10 Oeste 0 1016.4 0.2 90
2020-02-14 01:00:00 12.3 6 Oeste 13 Oeste 0 1016.5 0.6 90
2020-02-14 00:00:00 12.2 8 Noroeste 22 Noroeste 0 1016.4 1.2 90
2020-02-13 23:00:00 12.3 12 Noroeste 23 Noroeste 0 1016.2 1.6 90
2020-02-13 22:00:00 12.2 10 Noroeste 25 Oeste 0 1015.9 2.3 91
2020-02-13 21:00:00 12.2 16 Noroeste 26 Noroeste 0 1015.2 2.8 92
2020-02-13 20:00:00 12.4 14 Noroeste 31 Noroeste 0 1014.6 2.8 92
2020-02-13 19:00:00 12.3 19 Noroeste 35 Noroeste 0 1013.6 2.1 94
2020-02-13 18:00:00 12.4 17 Noroeste 34 Noroeste 0 1012.4 0.9 95
2020-02-13 17:00:00 14 19 Noroeste 36 Noroeste 0 1011.8 0.8 88
2020-02-13 16:00:00 14.7 12 Noroeste 29 Noroeste 0 1011.5 0.7 88
2020-02-13 15:00:00 14.9 7 Noroeste 17 Oeste 0 1011.5 1 85
2020-02-13 14:00:00 15.5 7 Norte 16 Norte 0 1011 1.7 79
2020-02-13 13:00:00 15.3 8 Norte 13 Norte 0 1010.8 1.9 81
2020-02-13 12:00:00 16.2 3 Oeste 12 Sur 0 1010.5 1.8 78
2020-02-13 11:00:00 15 4 Sur 13 Sur 0 1009.3 1.4 82
2020-02-13 10:00:00 14.3 6 Sur 16 Sudoeste 0 1008.9 1.4 83
2020-02-13 09:00:00 13.6 9 Sur 16 Sur 0 1008.7 1.1 85
2020-02-13 08:00:00 11.7 0 Calma 9 Sudeste 0 1007.9 0.6 91
2020-02-13 07:00:00 11.5 6 Sudeste 8 Sur 0 1007.5 0.5 92
2020-02-13 06:00:00 11.9 2 Oeste 11 Oeste 0 1007.6 -0.2 91
2020-02-13 05:00:00 13.1 5 Sur 14 Sur 0 1007.3 -1.1 82
2020-02-13 04:00:00 13 8 Sur 14 Sur 0 1007 -1.6 80
2020-02-13 03:00:00 13.3 9 Sur 18 Sur 0 1007.8 -1 79
2020-02-13 02:00:00 13.1 9 Sur 16 Sur 0 1008.4 -0.5 80
2020-02-13 01:00:00 12.5 9 Sur 20 Sudoeste 0 1008.6 -0.8 82
2020-02-13 00:00:00 13.3 11 Sudoeste 25 Sur 0 1008.8 -0.8 80
2020-02-12 23:00:00 11.4 13 Sur 21 Sur 0 1008.9 -1.5 88
2020-02-12 22:00:00 10.9 10 Sur 20 Sur 0 1009.4 -1.4 89
2020-02-12 21:00:00 11.1 10 Sur 19 Sudeste 0 1009.6 -1.6 90
2020-02-12 20:00:00 11 8 Sur 14 Sur 0 1010.4 -1.6 92
2020-02-12 19:00:00 10.9 5 Sur 10 Sur 0 1010.8 -1.6 92
2020-02-12 18:00:00 12.4 0 Calma 7 Nordeste 0 1011.2 -2.6 92
2020-02-12 17:00:00 12.5 6 Nordeste 14 Nordeste 0 1012 -2.9 91
2020-02-12 16:00:00 12.4 10 Nordeste 15 Nordeste 0 1012.4 -3.6 91
2020-02-12 15:00:00 12.5 9 Nordeste 15 Nordeste 0 1013.8 -2.9 92
2020-02-12 14:00:00 12.2 7 Nordeste 11 Nordeste 0 1014.9 -2 94
2020-02-12 13:00:00 11.8 4 Este 9 Sudeste 0 1016 -1.2 95
2020-02-12 12:00:00 11 3 Sudeste 9 Sudeste 0 1016.7 -0.3 98
2020-02-12 11:00:00 10.2 4 Sudeste 8 Sudeste 0 1016.9 0.5 98
2020-02-12 10:00:00 9.6 3 Este 6 Este 0 1017.2 0.9 98
2020-02-12 09:00:00 9.1 0 Calma 5 Sudeste 0 1017 0.1 98
2020-02-12 08:00:00 9 0 Calma 7 Sudeste 0 1016.4 -0.5 98
2020-02-12 07:00:00 9.1 2 Sudeste 8 Norte 0.1 1016.3 -0.6 98
2020-02-12 06:00:00 9 6 Este 16 Nordeste 0.1 1016.9 0.2 98
2020-02-12 05:00:00 9.3 3 Sudeste 5 Sudeste 0 1016.9 -0.4 98
2020-02-12 04:00:00 9.5 3 Sudeste 7 Sudeste 0 1016.9 -0.7 98
2020-02-12 03:00:00 9.6 4 Sur 6 Sudeste 0 1016.7 -0.5 98
2020-02-12 02:00:00 10 4 Nordeste 11 Nordeste 0 1017.3 -0.4 98
2020-02-12 01:00:00 10.1 6 Norte 12 Norte 0.2 1017.6 -0.2 98
2020-02-12 00:00:00 9.9 3 Sudeste 5 Sudeste 0.1 1017.2 -0.9 98
2020-02-11 23:00:00 10.1 0 Calma 5 Sur 0.1 1017.7 -0.8 98
2020-02-11 22:00:00 10.2 4 Sudeste 6 Sudeste 0 1017.8 -0.8 98
2020-02-11 21:00:00 10.2 0 Calma 9 Noroeste 0.1 1018.1 0.1 98
2020-02-11 20:00:00 10.3 4 Oeste 15 Noroeste 0 1018.5 0.9 98
2020-02-11 19:00:00 10.2 10 Noroeste 22 Noroeste 0.1 1018.6 1.3 98
2020-02-11 18:00:00 10.2 12 Noroeste 26 Noroeste 0.5 1018 0.4 98
2020-02-11 17:00:00 11.2 9 Noroeste 21 Noroeste 0 1017.6 -0.3 95
2020-02-11 16:00:00 11.5 12 Noroeste 28 Noroeste 0 1017.3 -1.3 95
2020-02-11 15:00:00 11.9 18 Noroeste 36 Noroeste 0 1017.6 -1.2 95
2020-02-11 14:00:00 12.6 14 Noroeste 26 Noroeste 0 1017.9 -0.7 89
2020-02-11 13:00:00 12.9 11 Noroeste 24 Noroeste 0 1018.6 -0.1 95
2020-02-11 12:00:00 12.7 10 Noroeste 19 Oeste 0 1018.8 0.2 93
2020-02-11 11:00:00 12 4 Oeste 14 Oeste 0.1 1018.6 0.4 97
2020-02-11 10:00:00 11.5 6 Noroeste 18 Noroeste 0.8 1018.7 0.9 97
2020-02-11 09:00:00 12 9 Oeste 22 Oeste 0.3 1018.6 0.7 94
2020-02-11 08:00:00 12.2 9 Oeste 27 Oeste 0 1018.2 0.4 92
2020-02-11 07:00:00 12.6 11 Noroeste 22 Noroeste 0 1017.8 0.2 92
2020-02-11 06:00:00 12.3 6 Oeste 21 Noroeste 0 1017.9 0.2 95
2020-02-11 05:00:00 12.2 8 Noroeste 17 Noroeste 0 1017.8 0.1 95
2020-02-11 04:00:00 12.1 10 Noroeste 18 Noroeste 0 1017.6 -0.9 95
2020-02-11 03:00:00 12.3 7 Noroeste 16 Noroeste 0 1017.7 -1.1 95
2020-02-11 02:00:00 12.5 4 Oeste 9 Noroeste 0 1017.7 -1.5 94
2020-02-11 01:00:00 12.6 9 Noroeste 21 Noroeste 0 1018.5 -0.6 94
2020-02-11 00:00:00 12.9 4 Sudeste 8 Sudeste 0 1018.8 -0.2 95
2020-02-10 23:00:00 12.9 6 Sudeste 8 Sudeste 0 1019.2 0.4 95
2020-02-10 22:00:00 13.1 4 Sur 8 Sudoeste 0 1019.1 0.2 95
2020-02-10 21:00:00 13 0 Calma 7 Oeste 0 1019 0.3 95
2020-02-10 20:00:00 12.9 3 Oeste 11 Noroeste 0 1018.8 0.2 95
2020-02-10 19:00:00 13 5 Noroeste 17 Noroeste 0 1018.9 1.4 95
2020-02-10 18:00:00 13 8 Noroeste 17 Oeste 0 1018.7 2.2 95
2020-02-10 17:00:00 13.1 9 Noroeste 16 Noroeste 0 1018.6 1.7 95
2020-02-10 16:00:00 13.6 5 Noroeste 13 Noroeste 0 1017.5 -0.6 95
2020-02-10 15:00:00 14.3 5 Norte 12 Norte 0 1016.5 -2.1 94
2020-02-10 14:00:00 14.8 6 Nordeste 11 Norte 0 1016.9 -1.5 93
2020-02-10 13:00:00 14.8 5 Nordeste 13 Nordeste 0 1018.1 -0.7 92
2020-02-10 12:00:00 14.8 7 Nordeste 12 Nordeste 0 1018.6 0.2 91
2020-02-10 11:00:00 15.2 0 Calma 8 Sur 0 1018.4 0.9 88
2020-02-10 10:00:00 12.9 6 Sudeste 19 Oeste 0 1018.8 2 94
2020-02-10 09:00:00 12.3 6 Sur 9 Sur 0 1018.4 1.8 94
2020-02-10 08:00:00 11.7 6 Sur 9 Sur 0 1017.5 1.5 94
2020-02-10 07:00:00 12.9 4 Sudeste 7 Sudeste 0 1016.8 0.3 92
2020-02-10 06:00:00 13.2 3 Este 6 Sudeste 0 1016.6 0.6 92
2020-02-10 05:00:00 13.2 4 Sudeste 8 Noroeste 0 1016 1.8 90
2020-02-10 04:00:00 14.3 4 Noroeste 9 Noroeste 0 1016.5 3 86
2020-02-10 03:00:00 15.6 5 Oeste 34 Sudoeste 0 1016 2.5 73
2020-02-10 02:00:00 17.1 15 Sudoeste 32 Sudoeste 0 1014.2 0.9 63
2020-02-10 01:00:00 17.4 14 Sur 35 Sur 0 1013.5 0.1 63
2020-02-10 00:00:00 17 14 Sur 39 Sur 0 1013.5 0.2 64
2020-02-09 23:00:00 17 15 Sur 35 Sur 0 1013.3 -0.3 63
2020-02-09 22:00:00 17 17 Sur 39 Sur 0 1013.4 0.5 63
2020-02-09 21:00:00 17.1 18 Sudoeste 37 Sudoeste 0 1013.3 1 61
2020-02-09 20:00:00 16.9 13 Sur 38 Sur 0 1013.6 1.4 62
2020-02-09 19:00:00 16.9 15 Sur 32 Sur 0 1012.9 1 61
2020-02-09 18:00:00 16.7 15 Sur 38 Sudoeste 0 1012.3 -0.2 60
2020-02-09 17:00:00 17.3 14 Sur 39 Sur 0 1012.2 -0.7 58
2020-02-09 16:00:00 17.9 17 Sur 38 Sudoeste 0 1011.9 -1.5 55
2020-02-09 15:00:00 17.3 18 Sur 40 Sur 0 1012.5 -2.1 54
2020-02-09 14:00:00 16.7 17 Sur 42 Sur 0 1012.9 -1.8 57
2020-02-09 13:00:00 16.6 16 Sudoeste 34 Sur 0 1013.4 -0.5 60
2020-02-09 12:00:00 15.6 14 Sur 32 Sur 0 1014.6 0.4 62
2020-02-09 11:00:00 15 14 Sur 31 Sur 0 1014.7 1 63
2020-02-09 10:00:00 14.2 12 Sur 34 Sudoeste 0 1013.9 1 62
2020-02-09 09:00:00 13.4 14 Sudoeste 26 Sudoeste 0 1014.2 1.2 62
2020-02-09 08:00:00 12.3 11 Sur 30 Sur 0 1013.7 0.8 68
2020-02-09 07:00:00 12.2 13 Sur 25 Sudoeste 0 1012.9 -0.2 69
2020-02-09 06:00:00 11.2 9 Sur 25 Sur 0 1013 -0.7 76
2020-02-09 05:00:00 10 11 Sudeste 18 Sudeste 0 1012.9 -1.3 85
2020-02-09 04:00:00 9.3 8 Sudeste 18 Sudeste 0 1013.1 -1.1 90
2020-02-09 03:00:00 9.3 8 Sur 18 Sudeste 0 1013.7 -0.6 91
2020-02-09 02:00:00 8.7 5 Sudeste 19 Sudeste 0 1014.2 -0.7 92
2020-02-09 01:00:00 8.6 9 Sur 20 Sur 0 1014.2 -1.4 96
2020-02-09 00:00:00 8.5 9 Sur 19 Sur 0 1014.3 -1.9 96
2020-02-08 23:00:00 8.7 9 Sur 19 Sudeste 0 1014.9 -1.7 96
2020-02-08 22:00:00 9 8 Sur 15 Sudeste 0 1015.6 -0.5 96
2020-02-08 21:00:00 8.7 6 Sur 12 Sudeste 0 1016.2 0.5 95
2020-02-08 20:00:00 9.6 4 Sudeste 6 Sudeste 0 1016.6 1.6 94
2020-02-08 19:00:00 10.9 2 Noroeste 9 Noroeste 0 1016.1 1.4 92
2020-02-08 18:00:00 11.1 4 Noroeste 12 Noroeste 0 1015.7 1.5 91
2020-02-08 17:00:00 11.3 6 Noroeste 15 Noroeste 0 1015 1 91
2020-02-08 16:00:00 11.6 9 Noroeste 19 Noroeste 0 1014.7 0.1 91
2020-02-08 15:00:00 11.5 7 Noroeste 13 Noroeste 0 1014.2 -0.6 87
2020-02-08 14:00:00 12 4 Oeste 14 Oeste 0 1014 -0.2 87
2020-02-08 13:00:00 11.3 8 Oeste 20 Sudoeste 0 1014.6 1.2 94
2020-02-08 12:00:00 10.6 13 Noroeste 40 Noroeste 2.9 1014.8 2.2 96
2020-02-08 11:00:00 11.6 10 Noroeste 26 Noroeste 0.4 1014.2 2.9 95
2020-02-08 10:00:00 12.2 17 Noroeste 29 Noroeste 0 1013.4 3.2 88
2020-02-08 09:00:00 12.1 12 Noroeste 24 Oeste 0 1012.6 2.5 85
2020-02-08 08:00:00 11.7 2 Sudoeste 14 Noroeste 0 1011.3 1.3 78
2020-02-08 07:00:00 11.9 7 Sudeste 12 Sudeste 0 1010.2 0.2 76
2020-02-08 06:00:00 12 5 Sur 17 Sur 0 1010.1 -0.2 75
2020-02-08 05:00:00 10.5 6 Sudeste 14 Sudeste 0 1010 -0.4 80
2020-02-08 04:00:00 10.8 9 Sudeste 16 Sur 0 1010 -0.5 79
2020-02-08 03:00:00 10.1 10 Sur 17 Sur 0 1010.3 -0.5 80
2020-02-08 02:00:00 10.5 10 Sur 19 Sur 0 1010.4 -0.8 80
2020-02-08 01:00:00 10.4 10 Sur 20 Sur 0 1010.5 -1.1 81
2020-02-08 00:00:00 10 9 Sudeste 17 Sudeste 0 1010.8 -0.6 85
2020-02-07 23:00:00 9.5 8 Sur 11 Sur 0 1011.2 0.2 93
2020-02-07 22:00:00 10.8 4 Sur 11 Oeste 0 1011.6 1 92
2020-02-07 21:00:00 11.1 5 Sudoeste 12 Sudoeste 0 1011.4 1.7 92
2020-02-07 20:00:00 12 7 Sudoeste 15 Oeste 0 1011 1.1 92
2020-02-07 19:00:00 13.3 5 Sudoeste 10 Sudoeste 0 1010.6 0.7 82
2020-02-07 18:00:00 16 7 Sudeste 13 Sudeste 0 1009.7 -0.5 63
2020-02-07 17:00:00 17.2 5 Sudeste 17 Sur 0 1009.9 -1.2 60
2020-02-07 16:00:00 17.4 9 Sudeste 19 Sudeste 0 1009.9 -2.1 58
2020-02-07 15:00:00 16.8 9 Sudeste 18 Sudeste 0 1010.2 -2.4 60
2020-02-07 14:00:00 14.7 0 Calma 8 Nordeste 0 1011.1 -0.8 70
2020-02-07 13:00:00 14.2 5 Nordeste 11 Oeste 0 1012 0.8 74
2020-02-07 12:00:00 15.2 3 Sur 18 Sudeste 0 1012.6 1.8 60
2020-02-07 11:00:00 13.7 10 Sur 22 Sur 0 1011.9 1.4 67
2020-02-07 10:00:00 11.6 12 Sur 22 Sur 0 1011.2 0.8 72
2020-02-07 09:00:00 10.9 10 Sur 22 Sur 0 1010.8 0.7 72
2020-02-07 08:00:00 10.9 10 Sur 24 Sur 0 1010.5 0.3 69
2020-02-07 07:00:00 11.3 11 Sur 25 Sudeste 0 1010.4 0.1 66
2020-02-07 06:00:00 10.8 10 Sur 21 Sudeste 0 1010.1 -0.7 66
2020-02-07 05:00:00 11.5 13 Sur 29 Sur 0 1010.2 -0.6 62
2020-02-07 04:00:00 11 11 Sur 24 Sur 0 1010.3 -0.8 61
2020-02-07 03:00:00 11.2 13 Sur 22 Sur 0 1010.8 -0.6 60
2020-02-07 02:00:00 10.7 10 Sur 18 Sur 0 1010.8 -0.5 61
2020-02-07 01:00:00 10.5 8 Sur 21 Sur 0 1011.1 -0.3 64
2020-02-07 00:00:00 10.5 9 Sur 20 Sudeste 0 1011.4 0 66
2020-02-06 23:00:00 11 12 Sur 18 Sur 0 1011.3 0.1 66
2020-02-06 22:00:00 11.3 8 Sur 19 Sur 0 1011.4 0.2 66
2020-02-06 21:00:00 12.7 10 Sur 21 Sur 0 1011.4 0.6 62
2020-02-06 20:00:00 12.7 10 Sur 17 Sur 0 1011.2 0.7 62
2020-02-06 19:00:00 13.2 6 Sur 11 Sur 0 1011.2 1 60
2020-02-06 18:00:00 15 5 Sur 13 Sur 0 1010.8 0.2 50
2020-02-06 17:00:00 17.6 7 Sur 15 Sur 0 1010.5 -0.6 46
2020-02-06 16:00:00 17.2 6 Sur 10 Oeste 0 1010.2 -1.3 48
2020-02-06 15:00:00 14.2 3 Noroeste 16 Sur 0 1010.6 -1.2 70
2020-02-06 14:00:00 17.6 9 Sur 19 Sur 0 1011.1 -0.4 42
2020-02-06 13:00:00 16.6 9 Sur 24 Sudeste 0 1011.5 0.1 43
2020-02-06 12:00:00 14.4 13 Sudeste 27 Sur 0 1011.8 0.4 48
2020-02-06 11:00:00 13 13 Sur 28 Sur 0 1011.5 0.2 51
2020-02-06 10:00:00 11 16 Sur 32 Sur 0 1011.4 0.5 57
2020-02-06 09:00:00 9.5 15 Sur 31 Sudeste 0 1011.4 0.3 61
2020-02-06 08:00:00 8.6 14 Sur 33 Sur 0 1011.3 -0.3 65
2020-02-06 07:00:00 7.2 14 Sudeste 26 Sudeste 0 1010.9 -1.3 72
2020-02-06 06:00:00 6.5 12 Sudeste 23 Sudeste 0 1011.1 -1.9 77
2020-02-06 05:00:00 5.4 12 Sur 22 Sur 0 1011.6 -2.6 85
2020-02-06 04:00:00 4.5 10 Sudeste 17 Sudeste 0 1012.2 -3.1 93
2020-02-06 03:00:00 4.2 9 Sudeste 16 Sudeste 0 1013 -3.2 94
2020-02-06 02:00:00 4.6 10 Sudeste 18 Sudeste 0 1014.2 -2.9 94
2020-02-06 01:00:00 4.5 8 Sur 17 Sur 0 1015.3 -2.3 94
2020-02-06 00:00:00 4.7 11 Sur 16 Sur 0 1016.2 -1.7 94
2020-02-05 23:00:00 5.3 6 Sur 10 Sur 0 1017.1 -1.4 92
2020-02-05 22:00:00 5.8 5 Sur 8 Sur 0 1017.6 -1.2 90
2020-02-05 21:00:00 6.4 4 Sur 8 Sur 0 1017.9 -1 88
2020-02-05 20:00:00 6.7 4 Sudeste 14 Este 0 1018.5 -0.7 87
2020-02-05 19:00:00 7.3 8 Este 17 Este 0 1018.8 -1.1 84
2020-02-05 18:00:00 8.6 13 Este 26 Este 0 1018.9 -2.1 76
2020-02-05 17:00:00 9.7 14 Sudeste 28 Este 0 1019.2 -3.2 69
2020-02-05 16:00:00 10.5 14 Este 29 Sudeste 0 1019.9 -3.6 60
2020-02-05 15:00:00 10.5 15 Este 30 Este 0 1021 -3.4 61
2020-02-05 14:00:00 11 9 Sudeste 21 Este 0 1022.4 -2.1 64
2020-02-05 13:00:00 10.6 9 Este 22 Este 0 1023.5 -0.9 68
2020-02-05 12:00:00 8.6 9 Sudeste 20 Sudeste 0 1024.4 0.2 78
2020-02-05 11:00:00 9.2 11 Este 16 Este 0 1024.5 0.4 84
2020-02-05 10:00:00 8.2 5 Sur 9 Sudeste 0 1024.4 0.4 96
2020-02-05 09:00:00 6.8 5 Sudeste 9 Sur 0 1024.2 0.1 96
2020-02-05 08:00:00 7.2 3 Sudeste 9 Sur 0 1024.1 -0.4 96
2020-02-05 07:00:00 7.4 7 Sur 12 Sudeste 0 1024 -0.8 95
2020-02-05 06:00:00 7.3 4 Sur 11 Sudeste 0.3 1024.1 -0.9 95
2020-02-05 05:00:00 7.3 6 Sur 11 Sudeste 0 1024.5 -0.6 95
2020-02-05 04:00:00 7.3 6 Sur 10 Sur 0 1024.8 -0.9 94
2020-02-05 03:00:00 7 8 Sur 10 Sudeste 0 1025 -0.9 94
2020-02-05 02:00:00 7 7 Sur 11 Sur 0 1025.1 -0.9 93
2020-02-05 01:00:00 7.4 7 Sur 10 Sur 0 1025.7 -0.3 90
2020-02-05 00:00:00 9 2 Este 11 Nordeste 0 1025.9 0.2 83
2020-02-04 23:00:00 9.8 8 Nordeste 17 Nordeste 0 1026 0.3 79
2020-02-04 22:00:00 10.3 8 Nordeste 17 Nordeste 0 1026 0.8 77
2020-02-04 21:00:00 10.2 8 Nordeste 18 Norte 0 1025.7 0.9 79
2020-02-04 20:00:00 10.3 9 Nordeste 20 Nordeste 0 1025.7 1.4 77
2020-02-04 19:00:00 10.5 11 Nordeste 22 Norte 0 1025.2 0.9 78
2020-02-04 18:00:00 10.8 9 Nordeste 24 Norte 0 1024.8 0.8 80
2020-02-04 12:00:00 9.9 14 Nordeste 26 Norte 0.8 1024.2 2.2 98
2020-02-04 11:00:00 10.3 15 Nordeste 31 Nordeste 1 1023.6 2.8 98
2020-02-04 10:00:00 11.3 10 Nordeste 27 Nordeste 0.4 1023.1 2.7 97
2020-02-04 09:00:00 11.3 5 Norte 31 Norte 0.4 1022 1.7 97
2020-02-04 08:00:00 12 12 Noroeste 24 Nordeste 0.4 1020.8 0.4 97
2020-02-04 07:00:00 12.6 12 Noroeste 25 Oeste 0 1020.4 0 97
2020-02-04 06:00:00 13 14 Noroeste 22 Noroeste 0 1020.3 0.1 96
2020-02-04 05:00:00 13.4 12 Noroeste 23 Noroeste 0 1020.4 0.2 94
2020-02-04 04:00:00 14.1 13 Noroeste 23 Noroeste 0 1020.4 0.9 90
2020-02-04 03:00:00 14.1 14 Noroeste 30 Noroeste 0 1020.2 1.6 90
2020-02-04 02:00:00 14.3 15 Noroeste 30 Oeste 0 1020.2 2.8 79
2020-02-04 01:00:00 14.5 0 Calma 12 Noroeste 0 1019.5 2.9 68
2020-02-04 00:00:00 13.8 6 Sur 11 Sur 0 1018.6 2.6 66
2020-02-03 23:00:00 14 7 Sudeste 11 Sudeste 0 1017.4 1.5 65
2020-02-03 22:00:00 14 8 Sudeste 14 Sur 0 1016.6 1.5 66
2020-02-03 21:00:00 14 3 Sudoeste 9 Oeste 0 1016 2 63
2020-02-03 20:00:00 15.4 6 Oeste 19 Oeste 0 1015.9 2.3 63
2020-02-03 19:00:00 15.2 13 Noroeste 21 Oeste 0 1015.1 1.6 73
2020-02-03 18:00:00 18.4 9 Oeste 21 Oeste 0 1014 0.1 47
2020-02-03 17:00:00 24.2 8 Sudoeste 24 Sudoeste 0 1013.6 -1 34
2020-02-03 16:00:00 24.8 12 Sudoeste 27 Sudoeste 0 1013.5 -2.4 32
2020-02-03 15:00:00 24.2 9 Sudoeste 27 Sur 0 1013.9 -3.1 36
2020-02-03 14:00:00 22.6 13 Sur 26 Sur 0 1014.6 -2.8 44
2020-02-03 13:00:00 22.1 8 Sur 28 Sudeste 0 1015.9 -1.6 46
2020-02-03 12:00:00 19.7 13 Sudeste 28 Sur 0 1017 -0.5 54
2020-02-03 11:00:00 18 14 Sudeste 26 Sur 0 1017.4 0.2 63
2020-02-03 10:00:00 16.5 13 Sudeste 24 Sur 0 1017.5 0.3 69
2020-02-03 09:00:00 15.6 13 Sur 25 Sudeste 0 1017.5 0.1 71
2020-02-03 08:00:00 15.7 14 Sur 24 Sudeste 0 1017.2 0 69
2020-02-03 07:00:00 16 14 Sudeste 25 Sudeste 0 1017.2 -0.1 69
2020-02-03 06:00:00 16.1 13 Sudeste 24 Sur 0 1017.4 0 68
2020-02-03 05:00:00 16.5 12 Sudeste 23 Sur 0 1017.2 -0.1 67
2020-02-03 04:00:00 16.8 12 Sudeste 20 Sudeste 0 1017.3 0.2 66
2020-02-03 03:00:00 16.9 11 Sur 20 Sur 0 1017.4 0.5 64
2020-02-03 02:00:00 17.2 12 Sur 22 Sur 0 1017.3 0.4 63
2020-02-03 01:00:00 17.3 13 Sur 22 Sur 0 1017.1 0.5 62
2020-02-03 00:00:00 17.7 12 Sur 21 Sur 0 1016.9 0.9 61
2020-02-02 23:00:00 17.8 11 Sur 19 Sur 0 1016.9 1.5 60
2020-02-02 22:00:00 18.4 12 Sur 23 Sudeste 0 1016.6 1.7 60
2020-02-02 21:00:00 19.3 11 Sur 25 Sudoeste 0 1016 1.5 56
2020-02-02 20:00:00 18.7 9 Sur 18 Sudeste 0 1015.4 1.7 62
2020-02-02 19:00:00 18.9 9 Sur 17 Sur 0 1014.9 0.9 61
2020-02-02 18:00:00 19.8 8 Sur 16 Sur 0 1014.5 0.5 57
2020-02-02 17:00:00 21.1 8 Sur 14 Sur 0 1013.7 -0.6 54
2020-02-02 16:00:00 21.3 8 Sur 25 Sur 0 1014 -0.6 54
2020-02-02 15:00:00 21.9 14 Sur 31 Sudoeste 0 1014 -1.1 52
2020-02-02 14:00:00 22 13 Sur 28 Sur 0 1014.3 -0.4 52
2020-02-02 13:00:00 21.8 13 Sur 28 Sur 0 1014.6 0 55
2020-02-02 12:00:00 21.1 13 Sur 27 Sur 0 1015.1 1.1 58
2020-02-02 11:00:00 20.1 9 Sur 19 Sur 0 1014.7 1.6 63
2020-02-02 10:00:00 18.7 9 Sur 21 Sudeste 0 1014.6 1.8 67
2020-02-02 09:00:00 17 10 Sur 23 Sudoeste 0 1014 1.7 70
2020-02-02 08:00:00 17.4 12 Sur 23 Sur 0 1013.1 1.5 67
2020-02-02 07:00:00 17.7 12 Sudoeste 28 Sudoeste 0 1012.8 0.8 65
2020-02-02 06:00:00 17.8 12 Sur 26 Sur 0 1012.3 0.2 66
2020-02-02 05:00:00 18.1 13 Sur 25 Sur 0 1011.6 -1.1 66
2020-02-02 04:00:00 17.6 11 Sudeste 26 Sur 0 1012 -1 70
2020-02-02 03:00:00 17.3 9 Sur 19 Sur 0 1012.1 -0.8 72
2020-02-02 02:00:00 17 9 Sur 20 Sur 0 1012.7 -0.4 77
2020-02-02 01:00:00 16 10 Sur 18 Sur 0 1013 -0.4 85
2020-02-02 00:00:00 14 6 Sur 12 Sur 0 1012.9 0 96
2020-02-01 23:00:00 12.7 6 Sur 10 Sur 0 1013.1 0.9 97
2020-02-01 22:00:00 12.8 7 Oeste 12 Oeste 0 1013.4 1.6 97
2020-02-01 21:00:00 12.6 4 Noroeste 8 Noroeste 0 1012.9 1.6 96
2020-02-01 20:00:00 12.6 2 Norte 9 Oeste 0 1012.2 0.7 96
2020-02-01 19:00:00 13.1 6 Oeste 15 Oeste 0 1011.8 -0.1 96
2020-02-01 18:00:00 13.6 7 Oeste 14 Oeste 0 1011.3 -0.6 95
2020-02-01 17:00:00 15.7 6 Oeste 15 Este 0 1011.5 -0.8 90
2020-02-01 16:00:00 15.7 9 Nordeste 20 Nordeste 0 1011.9 -0.6 93
2020-02-01 15:00:00 15.3 8 Nordeste 14 Nordeste 0 1011.9 -1.4 93
2020-02-01 14:00:00 15.4 7 Nordeste 13 Nordeste 0 1012.3 0.2 93
2020-02-01 13:00:00 15.5 8 Nordeste 10 Nordeste 0 1012.5 1.5 92
2020-02-01 12:00:00 16.1 5 Nordeste 12 Nordeste 0 1013.3 2.9 91
2020-02-01 11:00:00 16.3 3 Este 7 Sudeste 0 1012.1 2.6 91
2020-02-01 10:00:00 15.7 0 Calma 8 Noroeste 0 1011 2.4 93
2020-02-01 09:00:00 14 5 Noroeste 11 Noroeste 0 1010.4 2.7 93
2020-02-01 08:00:00 14.9 5 Noroeste 15 Noroeste 0 1009.5 2.2 90
2020-02-01 07:00:00 15.1 3 Noroeste 8 Noroeste 0 1008.6 2.3 90
2020-02-01 06:00:00 15.2 5 Oeste 10 Oeste 0 1007.7 1.6 89
2020-02-01 05:00:00 16.3 6 Sudoeste 19 Sudoeste 0 1007.3 1.3 85
2020-02-01 04:00:00 16.7 8 Sudoeste 23 Sur 0.1 1006.3 1.1 83
2020-02-01 03:00:00 16.2 10 Sur 37 Sudoeste 0.6 1006.1 0.4 85
2020-02-01 02:00:00 17.6 17 Sudoeste 40 Sudoeste 0.1 1006 0 70
2020-02-01 01:00:00 18.1 12 Sur 45 Sur 0 1005.2 -1.4 64
2020-02-01 00:00:00 17.8 13 Sur 37 Sudoeste 0 1005.7 -1.5 66
2020-01-31 23:00:00 17.1 14 Sudoeste 32 Sudoeste 0 1006 -1.5 66
2020-01-31 22:00:00 16.9 12 Sur 31 Sur 0 1006.6 -0.9 64
2020-01-31 21:00:00 16.8 10 Sur 24 Sudoeste 0 1007.2 -0.1 64
2020-01-31 20:00:00 16.6 6 Sur 22 Sur 0 1007.5 0.4 64
2020-01-31 19:00:00 17 8 Sur 18 Sudeste 0 1007.5 -0.4 63
2020-01-31 18:00:00 17.9 8 Sur 18 Sur 0 1007.3 -1 61
2020-01-31 17:00:00 18.6 10 Sur 23 Sur 0 1007.1 -1.8 60
2020-01-31 16:00:00 19.6 9 Sur 19 Sur 0 1007.9 -2.1 54
2020-01-31 15:00:00 20.2 9 Sur 17 Sudoeste 0 1008.3 -2.6 51
2020-01-31 14:00:00 20.7 7 Sur 19 Sudoeste 0 1008.9 -2 54
2020-01-31 13:00:00 19.8 6 Sur 15 Sudoeste 0 1010 -1 56
2020-01-31 12:00:00 18.6 6 Sur 15 Sudeste 0 1010.9 -0.1 64
2020-01-31 11:00:00 16.3 9 Sudeste 17 Sur 0 1010.9 0.5 74
2020-01-31 10:00:00 14.3 8 Sudeste 15 Sur 0 1011 1 83
2020-01-31 09:00:00 12.1 6 Sudeste 11 Sudeste 0 1011 0.8 90
2020-01-31 08:00:00 11.6 6 Sudeste 12 Sudeste 0 1010.4 0.2 92
2020-01-31 07:00:00 11.1 6 Sur 9 Sur 0 1010 -0.3 94
2020-01-31 06:00:00 11.4 0 Calma 8 Sudeste 0 1010.2 -0.1 94
2020-01-31 05:00:00 12 0 Calma 5 Noroeste 0 1010.2 -0.1 94
2020-01-31 04:00:00 12.4 4 Noroeste 10 Oeste 0 1010.3 -0.1 94
2020-01-31 03:00:00 12.7 0 Calma 5 Nordeste 0 1010.3 0.1 88
2020-01-31 02:00:00 12.8 0 Calma 8 Oeste 0 1010.3 0.3 89
2020-01-31 01:00:00 13.7 3 Sudoeste 22 Sudoeste 0 1010.4 0.9 77
2020-01-31 00:00:00 13 6 Sur 15 Sur 0 1010.2 0.8 78
2020-01-30 23:00:00 14 8 Sur 17 Sur 0 1010 1 75
2020-01-30 22:00:00 14.3 8 Sudeste 18 Sur 0 1009.5 0.9 74
2020-01-30 21:00:00 14.5 6 Sur 17 Sudeste 0 1009.4 1.5 73
2020-01-30 20:00:00 14.7 8 Sur 26 Sur 0 1009 1.2 75
2020-01-30 19:00:00 14.9 10 Sur 25 Sudoeste 0 1008.6 1.2 74
2020-01-30 18:00:00 15.1 10 Sur 27 Sur 0 1007.9 0.6 70
2020-01-30 17:00:00 15.3 13 Sur 30 Sur 0 1007.8 0.3 70
2020-01-30 16:00:00 15.8 13 Sudoeste 31 Sudoeste 0 1007.4 -0.1 66
2020-01-30 15:00:00 17.1 12 Sur 21 Sudoeste 0 1007.3 -0.5 60
2020-01-30 14:00:00 17.4 10 Sur 32 Sudoeste 0 1007.5 -0.1 60
2020-01-30 13:00:00 17.4 13 Sudoeste 31 Sudoeste 0 1007.5 0 60
2020-01-30 12:00:00 17.8 10 Sur 31 Sur 0 1007.8 0.6 60
2020-01-30 11:00:00 15.9 12 Sur 32 Sudoeste 0 1007.6 0.5 63
2020-01-30 10:00:00 15.5 12 Sur 26 Sur 0 1007.5 0.9 68
2020-01-30 09:00:00 14.7 8 Sur 33 Sudoeste 0 1007.2 0.6 70
2020-01-30 08:00:00 15.2 11 Sur 33 Sur 0 1007.1 0.2 65
2020-01-30 07:00:00 15.1 10 Sur 28 Sur 0 1006.6 -1 73
2020-01-30 06:00:00 15.6 10 Sur 31 Sur 0 1006.6 -1.5 74
2020-01-30 05:00:00 15 13 Sur 28 Sur 0 1006.9 -1.1 84
2020-01-30 04:00:00 13.6 7 Sur 17 Sur 0.9 1007.6 -0.6 95
2020-01-30 03:00:00 14.1 9 Sur 23 Sur 0.7 1008.1 0.2 92
2020-01-30 02:00:00 14.4 9 Sur 24 Sudoeste 0.4 1008 0 91
2020-01-30 01:00:00 15 10 Sur 27 Sudoeste 0.4 1008.2 0 87
2020-01-30 00:00:00 15.1 13 Sur 25 Sur 0.2 1007.9 -0.2 86
2020-01-29 23:00:00 15.4 8 Sur 17 Sur 0 1008 0 81
2020-01-29 22:00:00 14.8 6 Sur 17 Sur 0.2 1008.2 0 86
2020-01-29 21:00:00 14 7 Sur 13 Sudoeste 0 1008.1 0.4 91
2020-01-29 20:00:00 13.6 5 Sur 14 Sur 0.7 1008 0.6 92
2020-01-29 19:00:00 13.8 4 Sur 14 Sur 0.6 1008.2 0.5 91
2020-01-29 18:00:00 14.7 8 Sur 27 Sudoeste 0.4 1007.7 -0.5 84
2020-01-29 17:00:00 16.9 7 Sudoeste 26 Sudoeste 0 1007.4 -1.8 65
2020-01-29 16:00:00 17.4 10 Sudoeste 26 Sudoeste 0 1007.7 -2.4 64
2020-01-29 15:00:00 17.5 8 Sur 16 Sudeste 0 1008.2 -2.6 66
2020-01-29 14:00:00 17.6 8 Sur 16 Sur 0 1009.2 -1.8 66
2020-01-29 13:00:00 16.5 9 Sur 19 Sudeste 0 1010.1 -1.2 76
2020-01-29 12:00:00 13.2 10 Sur 20 Sur 0 1010.8 -0.3 86
2020-01-29 11:00:00 10.9 10 Sudeste 18 Sudeste 0 1011 -0.1 91
2020-01-29 10:00:00 9.6 10 Sur 17 Sur 0 1011.3 0 92
2020-01-29 09:00:00 8.7 10 Sur 19 Sudeste 0 1011.1 0.1 92
2020-01-29 08:00:00 8.3 7 Sur 14 Sur 0 1011.1 0.2 92
2020-01-29 07:00:00 8.5 9 Sur 15 Sur 0 1011.3 0.2 92
2020-01-29 06:00:00 8.1 8 Sur 13 Sur 0 1011 -0.2 92
2020-01-29 05:00:00 7.9 8 Sur 13 Sur 0 1010.9 -0.1 92
2020-01-29 04:00:00 7.3 9 Sudeste 16 Sur 0 1011.1 -0.1 92
2020-01-29 03:00:00 7.5 9 Sur 14 Sur 0 1011.2 0.3 92
2020-01-29 02:00:00 7.7 9 Sur 15 Sur 0 1011 -0.3 91
2020-01-29 01:00:00 7.4 8 Sur 14 Sur 0 1011.2 0 92
2020-01-29 00:00:00 7.4 9 Sur 15 Sur 0 1010.9 -0.2 92
2020-01-28 23:00:00 8 9 Sur 13 Sur 0 1011.3 0.4 90
2020-01-28 22:00:00 9.3 5 Sur 10 Sur 0 1011.2 0.6 86
2020-01-28 21:00:00 10 2 Sudoeste 6 Sur 0 1011.1 1.1 84
2020-01-28 20:00:00 11.3 3 Oeste 18 Noroeste 0 1010.9 1.1 83
2020-01-28 19:00:00 11.4 9 Noroeste 19 Noroeste 0 1010.6 0.8 81
2020-01-28 18:00:00 11.7 10 Noroeste 25 Noroeste 0 1010 0.2 80
2020-01-28 17:00:00 12.1 13 Noroeste 27 Noroeste 0 1009.8 -0.4 78
2020-01-28 16:00:00 12.8 12 Noroeste 28 Noroeste 0 1009.8 -0.7 76
2020-01-28 15:00:00 13.1 17 Noroeste 32 Noroeste 0 1009.8 -1.1 70
2020-01-28 14:00:00 13.6 15 Noroeste 27 Oeste 0 1010.2 -0.3 67
2020-01-28 13:00:00 13.4 13 Oeste 27 Oeste 0 1010.5 0.5 66
2020-01-28 12:00:00 13 10 Oeste 26 Oeste 0 1010.9 1.6 72
2020-01-28 11:00:00 11.7 11 Oeste 24 Noroeste 0 1010.5 1.7 79
2020-01-28 10:00:00 11.6 11 Noroeste 32 Noroeste 0 1010 2 80
2020-01-28 09:00:00 11.7 14 Noroeste 26 Noroeste 0 1009.3 2 80
2020-01-28 08:00:00 11.6 11 Noroeste 28 Noroeste 0 1008.8 1.8 83
2020-01-28 07:00:00 11.7 15 Noroeste 26 Noroeste 0 1008 1 83
2020-01-28 06:00:00 11.4 10 Oeste 22 Oeste 0 1007.3 0.9 86
2020-01-28 05:00:00 11.1 11 Oeste 33 Oeste 0 1007 0.7 90
2020-01-28 04:00:00 10.9 15 Oeste 44 Noroeste 0.1 1007 1.6 92
2020-01-28 03:00:00 10.2 24 Noroeste 45 Noroeste 0.9 1006.4 1.3 97
2020-01-28 02:00:00 11.5 8 Noroeste 20 Noroeste 0.1 1006.3 1.5 95
2020-01-28 01:00:00 11.6 5 Noroeste 14 Noroeste 0.1 1005.4 1.6 95
2020-01-28 00:00:00 11.5 5 Noroeste 15 Noroeste 0.1 1005.1 2.4 95
2020-01-27 23:00:00 12.4 6 Noroeste 22 Oeste 0 1004.8 2.9 92
2020-01-27 22:00:00 14.1 6 Oeste 40 Sudoeste 0 1003.8 1.7 70
2020-01-27 21:00:00 16.2 16 Sudoeste 38 Oeste 0 1002.7 0.8 55
2020-01-27 20:00:00 16 17 Sudoeste 44 Sudoeste 0 1001.9 -0.4 57
2020-01-27 19:00:00 15.4 16 Sudoeste 38 Sudoeste 0 1002.1 -1.2 60
2020-01-27 18:00:00 15.6 13 Sudoeste 32 Sudoeste 0 1001.9 -2.1 60
2020-01-27 17:00:00 15.5 10 Sudoeste 28 Sudoeste 0 1002.3 -2.9 64
2020-01-27 16:00:00 14.9 7 Sudoeste 29 Sudoeste 0 1003.3 -3 65
2020-01-27 15:00:00 14.4 12 Sudoeste 40 Sudoeste 0 1004 -3.3 65
2020-01-27 14:00:00 13.6 12 Sudoeste 44 Oeste 0 1005.2 -1.1 68
2020-01-27 13:00:00 12.4 4 Sudoeste 36 Sudoeste 0 1006.3 1 81
2020-01-27 12:00:00 13.1 18 Sudoeste 53 Sudoeste 0.2 1007.3 2 69
2020-01-27 11:00:00 13.3 18 Sudoeste 54 Oeste 0 1006.3 1.1 63
2020-01-27 10:00:00 13.7 19 Sudoeste 61 Sur 0 1005.3 -0.2 59
2020-01-27 09:00:00 13.4 15 Sudoeste 48 Sudoeste 0 1005.3 -1.2 60
2020-01-27 08:00:00 13 15 Sur 41 Sudoeste 0 1005.2 -1.7 62
2020-01-27 07:00:00 12.7 15 Sur 48 Sudoeste 0 1005.5 -2 63
2020-01-27 06:00:00 12.8 16 Sur 34 Sur 0 1006.5 -1.3 63
2020-01-27 05:00:00 12.6 13 Sur 33 Sur 0 1006.9 -1.7 63
2020-01-27 04:00:00 12.3 12 Sur 31 Sur 0 1007.5 -1.9 64
2020-01-27 03:00:00 11.7 9 Sur 30 Sudoeste 0 1007.8 -2.1 64
2020-01-27 02:00:00 11.3 13 Sur 28 Sur 0 1008.6 -1.7 64
2020-01-27 01:00:00 10.2 9 Sur 18 Sudeste 0 1009.4 -1.1 69
2020-01-27 00:00:00 9.4 8 Sur 16 Sudoeste 0 1009.9 -0.8 70
2020-01-26 23:00:00 9.2 9 Sur 24 Sudoeste 0 1010.3 -0.2 69
2020-01-26 22:00:00 9 9 Sur 20 Sur 0 1010.5 0.3 70
2020-01-26 21:00:00 9.4 8 Sur 27 Sudoeste 0 1010.7 0.7 69
2020-01-26 20:00:00 10.1 8 Sur 21 Sudeste 0 1010.5 0.4 66
2020-01-26 19:00:00 10.9 9 Sur 18 Sur 0 1010.2 -0.3 66
2020-01-26 18:00:00 11.5 6 Sur 13 Sur 0 1010 -0.5 67
2020-01-26 17:00:00 12.7 7 Sur 19 Sur 0 1010.1 -1 63
2020-01-26 16:00:00 14.2 6 Sur 20 Sur 0 1010.5 -1.3 58
2020-01-26 15:00:00 14.1 9 Sur 17 Sur 0 1010.5 -1.5 60
2020-01-26 14:00:00 14.1 5 Sudoeste 15 Sur 0 1011.1 -1 63
2020-01-26 13:00:00 12.5 7 Sur 17 Sudeste 0 1011.8 0.2 74
2020-01-26 12:00:00 10.8 9 Sudeste 18 Sur 0 1012 0.8 83
2020-01-26 11:00:00 8.8 11 Sur 18 Sur 0 1012.1 1.4 92
2020-01-26 10:00:00 7 10 Sur 17 Sur 0 1011.6 1.6 97
2020-01-26 09:00:00 6 10 Sur 15 Sur 0 1011.2 1.7 97
2020-01-26 08:00:00 6.3 9 Sur 16 Sur 0 1010.7 1.2 97
2020-01-26 07:00:00 6.7 8 Sur 13 Sur 0 1010 0.7 97
2020-01-26 06:00:00 6.7 8 Sur 13 Sur 0 1009.5 0.8 97
2020-01-26 05:00:00 7.6 8 Sur 10 Sur 0 1009.5 0.9 96
2020-01-26 04:00:00 7.7 5 Sur 11 Sur 0 1009.3 0.6 96
2020-01-26 03:00:00 8.1 6 Sur 10 Sur 0 1008.7 0.1 95
2020-01-26 02:00:00 8.4 6 Sur 10 Sur 0 1008.6 0.1 95
2020-01-26 01:00:00 9.1 6 Sur 9 Sudeste 0 1008.7 0.2 94
2020-01-26 00:00:00 9.3 6 Sur 9 Sur 0 1008.6 0.6 94
2020-01-25 23:00:00 9.9 0 Calma 5 Noroeste 0 1008.5 0.9 92
2020-01-25 22:00:00 10.7 3 Noroeste 6 Sudeste 0 1008.5 1.4 91
2020-01-25 21:00:00 10.7 2 Sudoeste 10 Oeste 0 1008 1.7 90
2020-01-25 20:00:00 10.8 8 Noroeste 19 Oeste 0 1007.6 1.7 91
2020-01-25 19:00:00 11.4 3 Noroeste 8 Noroeste 0 1007.1 1.3 92
2020-01-25 18:00:00 12 3 Sur 11 Sur 0 1006.3 0.2 79
2020-01-25 17:00:00 12.5 4 Sur 16 Sur 0 1005.9 -0.8 75
2020-01-25 16:00:00 13.2 7 Sur 23 Sur 0 1005.8 -1.6 71
2020-01-25 15:00:00 13.9 12 Sur 23 Sudoeste 0 1006.1 -2.1 69
2020-01-25 14:00:00 13.7 8 Sur 21 Sudeste 0 1006.7 -1.6 69
2020-01-25 13:00:00 12.7 10 Sudeste 21 Sudeste 0 1007.4 -0.7 75
2020-01-25 12:00:00 12 10 Sudeste 24 Sur 0 1008.2 0.4 76
2020-01-25 11:00:00 11 9 Sur 18 Sudeste 0 1008.3 0.7 83
2020-01-25 10:00:00 9.5 6 Sudeste 18 Sudeste 0 1008.1 0.9 86
2020-01-25 09:00:00 8.9 11 Sur 23 Sur 0 1007.8 0.6 86
2020-01-25 08:00:00 8.7 10 Sur 24 Sur 0 1007.6 0.3 87
2020-01-25 07:00:00 9.2 10 Sur 22 Sur 0 1007.2 -0.5 85
2020-01-25 06:00:00 9.9 11 Sudeste 25 Sudeste 0 1007.2 -1 85
2020-01-25 05:00:00 9.4 9 Sur 18 Sur 0 1007.3 -0.9 87
2020-01-25 04:00:00 9.1 7 Sudeste 17 Sur 0 1007.7 -0.8 87
2020-01-25 03:00:00 8.9 7 Sur 18 Sur 0 1008.2 -0.7 87
2020-01-25 02:00:00 9.2 8 Sur 23 Sur 0 1008.2 -0.8 85
2020-01-25 01:00:00 10 12 Sur 23 Sur 0 1008.5 -0.6 82
2020-01-25 00:00:00 10.6 6 Sur 19 Sur 0 1008.9 -0.2 80
2020-01-24 23:00:00 10.7 13 Sur 23 Sur 0 1009 0.1 81
2020-01-24 22:00:00 10.3 8 Sur 16 Sur 0 1009.1 0.5 83
2020-01-24 21:00:00 10.5 9 Sur 16 Sur 0 1009.1 0.8 81
2020-01-24 20:00:00 10.8 7 Sur 14 Sudeste 0 1008.9 0.5 80
2020-01-24 19:00:00 10.8 7 Sudeste 12 Sur 0 1008.6 0 79
2020-01-24 18:00:00 11.4 6 Sur 17 Sur 0 1008.3 -0.5 75
2020-01-24 17:00:00 12 8 Sur 19 Sur 0 1008.4 -0.8 73
2020-01-24 16:00:00 12.3 10 Sur 23 Sur 0 1008.6 -1.5 72
2020-01-24 15:00:00 12.6 9 Sur 24 Sur 0 1008.8 -1.7 74
2020-01-24 14:00:00 12 10 Sur 26 Sur 0 1009.2 -0.9 74
2020-01-24 13:00:00 11.4 11 Sur 26 Sur 0 1010.1 0.3 76
2020-01-24 12:00:00 10.9 13 Sur 28 Sur 0 1010.5 1.4 76
2020-01-24 11:00:00 10.8 10 Sur 25 Sur 0 1010.1 1.4 76
2020-01-24 10:00:00 10.2 11 Sudeste 32 Sur 0 1009.8 0.9 77
2020-01-24 09:00:00 10.1 19 Sur 38 Sur 0 1009.1 0.7 76
2020-01-24 08:00:00 9.9 16 Sur 39 Sudeste 0 1008.7 -0.1 76
2020-01-24 07:00:00 9.8 13 Sur 34 Sur 0 1008.9 -0.1 78
2020-01-24 06:00:00 9.7 19 Sur 40 Sur 0 1008.4 -0.7 79
2020-01-24 05:00:00 9.6 13 Sudeste 24 Este 0 1008.8 -0.7 80
2020-01-24 04:00:00 9.7 13 Sudeste 25 Sudeste 0 1009 -0.6 80
2020-01-24 03:00:00 9.7 13 Sudeste 34 Sudeste 0 1009.1 -0.5 80
2020-01-24 02:00:00 9.7 12 Sudeste 23 Sudeste 0 1009.5 0.1 82
2020-01-24 01:00:00 9.3 3 Sudeste 26 Sudeste 0 1009.6 0.6 82
2020-01-24 00:00:00 9.6 6 Sudeste 30 Este 0 1009.6 0.9 82
2020-01-23 23:00:00 10 13 Sudeste 26 Este 0 1009.4 0.9 79
2020-01-23 22:00:00 10 16 Sudeste 36 Sudeste 0 1009 0.6 78
2020-01-23 21:00:00 9.9 15 Sur 31 Sur 0 1008.7 0.6 78
2020-01-23 20:00:00 10 13 Sur 29 Sur 0 1008.5 0.7 77
2020-01-23 19:00:00 9.6 7 Sudeste 16 Sur 0 1008.4 0.9 86
2020-01-23 18:00:00 9.7 6 Sur 11 Sudeste 0 1008.1 0.3 87
2020-01-23 17:00:00 10.1 5 Sudeste 10 Sudeste 0 1007.8 -1 87
2020-01-23 16:00:00 10.3 5 Sudeste 10 Sudeste 0 1007.5 -2 87
2020-01-23 15:00:00 10.4 4 Sudeste 9 Sur 0 1007.8 -2.3 87
2020-01-23 14:00:00 10.3 3 Sudeste 13 Sudeste 0 1008.8 -0.8 87
2020-01-23 13:00:00 10 7 Sudeste 17 Sudeste 0 1009.5 0 87
2020-01-23 12:00:00 9 4 Sudeste 13 Sudeste 0 1010.1 0.3 92
2020-01-23 11:00:00 8.2 7 Sudeste 12 Sudeste 0 1009.6 0 94
2020-01-23 10:00:00 7 7 Sur 13 Sur 0 1009.5 0.5 96
2020-01-23 09:00:00 6.3 7 Sur 12 Sudeste 0 1009.8 0.2 97
2020-01-23 08:00:00 6 8 Sur 17 Sudeste 0 1009.6 -0.1 97
2020-01-23 07:00:00 5.8 9 Sudeste 17 Sur 0 1009 -0.7 97
2020-01-23 06:00:00 5.5 11 Sur 17 Sur 0 1009.6 -0.5 97
2020-01-23 05:00:00 5.7 7 Sur 12 Sudeste 0 1009.7 -0.8 97
2020-01-23 04:00:00 6 8 Sur 12 Sur 0 1009.7 -1.2 96
2020-01-23 03:00:00 6.3 7 Sur 13 Sur 0 1010.1 -1 96
2020-01-23 02:00:00 6.7 7 Sur 10 Sur 0 1010.5 -0.7 97
2020-01-23 01:00:00 6.9 5 Sur 10 Sur 0 1010.9 -0.2 97
2020-01-23 00:00:00 6.9 6 Sur 10 Sur 0 1011.1 -0.1 96
2020-01-22 23:00:00 7.1 4 Sur 11 Este 0 1011.2 -0.4 96
2020-01-22 22:00:00 7 8 Sudeste 12 Sudeste 0 1011.1 -0.9 96
2020-01-22 21:00:00 7.1 5 Sur 9 Sur 0 1011.2 -0.8 96
2020-01-22 20:00:00 7.2 6 Sur 10 Sur 0 1011.6 -0.6 96
2020-01-22 19:00:00 8.1 4 Sudeste 8 Sudeste 0 1012 -0.4 96
2020-01-22 18:00:00 8.2 0 Calma 5 Sudeste 0 1012 -0.6 96
2020-01-22 17:00:00 8.5 0 Calma 6 Sudoeste 0 1012.2 -1.4 96
2020-01-22 16:00:00 8.7 0 Calma 6 Sudeste 0 1012.4 -2 96
2020-01-22 15:00:00 8 0 Calma 5 Sur 0.2 1012.6 -2.3 96
2020-01-22 14:00:00 7.6 4 Sudeste 6 Sur 0.5 1013.6 -1.5 96
2020-01-22 13:00:00 7.6 4 Sur 8 Sudeste 0 1014.4 -0.4 95
2020-01-22 12:00:00 7.4 5 Sur 8 Sudeste 0 1014.9 0.1 95
2020-01-22 11:00:00 7.1 5 Sur 10 Sur 0 1015.1 0.5 95
2020-01-22 10:00:00 7.1 5 Sur 9 Sur 0 1014.8 0.3 95
2020-01-22 09:00:00 7.6 5 Sudoeste 7 Sur 0 1014.8 0.1 94
2020-01-22 08:00:00 7.4 0 Calma 8 Sudeste 0 1014.6 -0.8 94
2020-01-22 07:00:00 7.5 4 Sudeste 12 Sur 0 1014.5 -1.3 93
2020-01-22 06:00:00 7.7 3 Sudoeste 9 Sudoeste 0 1014.7 -1.2 92
2020-01-22 05:00:00 8.2 4 Sur 38 Este 0 1015.4 -1.1 90
2020-01-22 04:00:00 8.6 12 Este 23 Este 0 1015.8 -1.2 91
2020-01-22 03:00:00 9 6 Este 18 Este 0 1015.9 -1.7 88
2020-01-22 02:00:00 8.5 0 Calma 6 Este 0 1016.5 -1.3 89
2020-01-22 01:00:00 8.7 3 Sur 10 Sudeste 0 1017 -1.3 89
2020-01-22 00:00:00 9 5 Oeste 19 Oeste 0 1017.6 -1 91